sensor_id;sensor_type;location;lat;lon;timestamp;P1;durP1;ratioP1;P2;durP2;ratioP2
21258;SDS011;10787;53.364;-1.480;2023-02-28T00:00:18;12.67;;;7.30;;
21258;SDS011;10787;53.364;-1.480;2023-02-28T00:02:45;13.10;;;7.87;;
21258;SDS011;10787;53.364;-1.480;2023-02-28T00:05:11;13.03;;;7.50;;
21258;SDS011;10787;53.364;-1.480;2023-02-28T00:07:39;12.23;;;7.60;;
21258;SDS011;10787;53.364;-1.480;2023-02-28T00:10:05;10.97;;;7.10;;
21258;SDS011;10787;53.364;-1.480;2023-02-28T00:12:36;10.10;;;5.73;;
21258;SDS011;10787;53.364;-1.480;2023-02-28T00:15:07;8.53;;;5.00;;
21258;SDS011;10787;53.364;-1.480;2023-02-28T00:17:34;7.80;;;4.90;;
21258;SDS011;10787;53.364;-1.480;2023-02-28T00:20:00;6.80;;;4.67;;
21258;SDS011;10787;53.364;-1.480;2023-02-28T00:22:26;7.77;;;4.80;;
21258;SDS011;10787;53.364;-1.480;2023-02-28T00:24:53;10.07;;;5.47;;
21258;SDS011;10787;53.364;-1.480;2023-02-28T00:27:18;9.87;;;6.10;;
21258;SDS011;10787;53.364;-1.480;2023-02-28T00:29:46;11.00;;;6.40;;
21258;SDS011;10787;53.364;-1.480;2023-02-28T00:32:12;12.27;;;7.80;;
21258;SDS011;10787;53.364;-1.480;2023-02-28T00:34:38;13.83;;;7.73;;
21258;SDS011;10787;53.364;-1.480;2023-02-28T00:37:05;11.97;;;8.20;;
21258;SDS011;10787;53.364;-1.480;2023-02-28T00:39:33;15.63;;;9.60;;
21258;SDS011;10787;53.364;-1.480;2023-02-28T00:42:00;15.33;;;10.00;;
21258;SDS011;10787;53.364;-1.480;2023-02-28T00:44:25;16.70;;;10.73;;
21258;SDS011;10787;53.364;-1.480;2023-02-28T00:46:51;16.73;;;10.70;;
21258;SDS011;10787;53.364;-1.480;2023-02-28T00:49:19;15.10;;;10.03;;
21258;SDS011;10787;53.364;-1.480;2023-02-28T00:51:45;17.03;;;10.67;;
21258;SDS011;10787;53.364;-1.480;2023-02-28T00:54:11;19.17;;;10.90;;
21258;SDS011;10787;53.364;-1.480;2023-02-28T00:56:37;15.90;;;10.87;;
21258;SDS011;10787;53.364;-1.480;2023-02-28T00:59:03;18.53;;;10.43;;
21258;SDS011;10787;53.364;-1.480;2023-02-28T01:01:29;15.57;;;10.50;;
21258;SDS011;10787;53.364;-1.480;2023-02-28T01:03:55;17.90;;;10.30;;
21258;SDS011;10787;53.364;-1.480;2023-02-28T01:06:20;16.33;;;10.30;;
21258;SDS011;10787;53.364;-1.480;2023-02-28T01:08:46;16.90;;;10.10;;
21258;SDS011;10787;53.364;-1.480;2023-02-28T01:11:13;18.23;;;9.90;;
21258;SDS011;10787;53.364;-1.480;2023-02-28T01:13:40;11.73;;;8.23;;
21258;SDS011;10787;53.364;-1.480;2023-02-28T01:16:06;13.97;;;7.37;;
21258;SDS011;10787;53.364;-1.480;2023-02-28T01:18:32;12.43;;;6.93;;
21258;SDS011;10787;53.364;-1.480;2023-02-28T01:21:02;11.90;;;7.17;;
21258;SDS011;10787;53.364;-1.480;2023-02-28T01:23:32;11.23;;;7.23;;
21258;SDS011;10787;53.364;-1.480;2023-02-28T01:26:03;9.60;;;6.60;;
21258;SDS011;10787;53.364;-1.480;2023-02-28T01:28:33;10.03;;;6.23;;
21258;SDS011;10787;53.364;-1.480;2023-02-28T01:30:59;11.47;;;6.00;;
21258;SDS011;10787;53.364;-1.480;2023-02-28T01:33:25;11.17;;;6.70;;
21258;SDS011;10787;53.364;-1.480;2023-02-28T01:35:57;12.73;;;6.83;;
21258;SDS011;10787;53.364;-1.480;2023-02-28T01:38:24;11.07;;;6.40;;
21258;SDS011;10787;53.364;-1.480;2023-02-28T01:40:50;12.33;;;6.63;;
21258;SDS011;10787;53.364;-1.480;2023-02-28T01:43:20;10.07;;;6.70;;
21258;SDS011;10787;53.364;-1.480;2023-02-28T01:45:54;10.40;;;6.20;;
21258;SDS011;10787;53.364;-1.480;2023-02-28T01:48:30;9.70;;;5.60;;
21258;SDS011;10787;53.364;-1.480;2023-02-28T01:50:59;9.13;;;5.70;;
21258;SDS011;10787;53.364;-1.480;2023-02-28T01:53:32;7.53;;;5.40;;
21258;SDS011;10787;53.364;-1.480;2023-02-28T01:56:01;7.67;;;5.70;;
21258;SDS011;10787;53.364;-1.480;2023-02-28T01:58:31;9.10;;;5.90;;
21258;SDS011;10787;53.364;-1.480;2023-02-28T02:00:57;10.77;;;5.30;;
21258;SDS011;10787;53.364;-1.480;2023-02-28T02:03:22;7.30;;;5.00;;
21258;SDS011;10787;53.364;-1.480;2023-02-28T02:05:48;8.47;;;4.97;;
21258;SDS011;10787;53.364;-1.480;2023-02-28T02:08:16;8.03;;;5.50;;
21258;SDS011;10787;53.364;-1.480;2023-02-28T02:10:54;10.30;;;5.20;;
21258;SDS011;10787;53.364;-1.480;2023-02-28T02:16:10;12.03;;;5.63;;
21258;SDS011;10787;53.364;-1.480;2023-02-28T02:18:43;11.53;;;5.83;;
21258;SDS011;10787;53.364;-1.480;2023-02-28T02:24:24;7.47;;;5.23;;
21258;SDS011;10787;53.364;-1.480;2023-02-28T02:30:20;10.30;;;5.33;;
21258;SDS011;10787;53.364;-1.480;2023-02-28T02:35:51;9.27;;;6.00;;
21258;SDS011;10787;53.364;-1.480;2023-02-28T02:38:31;9.30;;;5.10;;
21258;SDS011;10787;53.364;-1.480;2023-02-28T02:43:49;11.87;;;6.30;;
21258;SDS011;10787;53.364;-1.480;2023-02-28T02:46:29;15.47;;;6.77;;
21258;SDS011;10787;53.364;-1.480;2023-02-28T02:49:13;10.43;;;6.70;;
21258;SDS011;10787;53.364;-1.480;2023-02-28T02:51:45;10.67;;;7.70;;
21258;SDS011;10787;53.364;-1.480;2023-02-28T02:56:42;13.17;;;8.07;;
21258;SDS011;10787;53.364;-1.480;2023-02-28T02:59:12;14.90;;;9.30;;
21258;SDS011;10787;53.364;-1.480;2023-02-28T03:01:46;14.17;;;9.23;;
21258;SDS011;10787;53.364;-1.480;2023-02-28T03:04:19;13.70;;;8.70;;
21258;SDS011;10787;53.364;-1.480;2023-02-28T03:06:48;13.77;;;8.53;;
21258;SDS011;10787;53.364;-1.480;2023-02-28T03:09:20;15.63;;;9.03;;
21258;SDS011;10787;53.364;-1.480;2023-02-28T03:11:50;14.27;;;8.93;;
21258;SDS011;10787;53.364;-1.480;2023-02-28T03:14:31;15.10;;;8.97;;
21258;SDS011;10787;53.364;-1.480;2023-02-28T03:25:12;11.43;;;7.47;;
21258;SDS011;10787;53.364;-1.480;2023-02-28T03:27:44;11.30;;;7.43;;
21258;SDS011;10787;53.364;-1.480;2023-02-28T03:30:26;11.73;;;7.33;;
21258;SDS011;10787;53.364;-1.480;2023-02-28T03:33:00;8.83;;;6.53;;
21258;SDS011;10787;53.364;-1.480;2023-02-28T03:35:35;9.17;;;6.23;;
21258;SDS011;10787;53.364;-1.480;2023-02-28T03:44:19;9.73;;;6.17;;
21258;SDS011;10787;53.364;-1.480;2023-02-28T03:47:00;10.63;;;6.20;;
21258;SDS011;10787;53.364;-1.480;2023-02-28T03:49:49;8.67;;;5.53;;
21258;SDS011;10787;53.364;-1.480;2023-02-28T03:52:22;7.50;;;5.37;;
21258;SDS011;10787;53.364;-1.480;2023-02-28T03:54:54;7.10;;;4.87;;
21258;SDS011;10787;53.364;-1.480;2023-02-28T03:57:27;7.07;;;5.03;;
21258;SDS011;10787;53.364;-1.480;2023-02-28T04:00:11;8.87;;;6.20;;
21258;SDS011;10787;53.364;-1.480;2023-02-28T04:02:41;9.03;;;5.60;;
21258;SDS011;10787;53.364;-1.480;2023-02-28T04:05:07;9.63;;;6.00;;
21258;SDS011;10787;53.364;-1.480;2023-02-28T04:07:33;10.13;;;6.87;;
21258;SDS011;10787;53.364;-1.480;2023-02-28T04:09:59;10.77;;;7.37;;
21258;SDS011;10787;53.364;-1.480;2023-02-28T04:12:25;14.40;;;8.47;;
21258;SDS011;10787;53.364;-1.480;2023-02-28T04:14:51;14.83;;;8.67;;
21258;SDS011;10787;53.364;-1.480;2023-02-28T04:17:17;16.93;;;9.90;;
21258;SDS011;10787;53.364;-1.480;2023-02-28T04:19:43;16.83;;;10.07;;
21258;SDS011;10787;53.364;-1.480;2023-02-28T04:22:09;17.97;;;11.00;;
21258;SDS011;10787;53.364;-1.480;2023-02-28T04:24:35;17.97;;;11.20;;
21258;SDS011;10787;53.364;-1.480;2023-02-28T04:27:02;18.90;;;11.50;;
21258;SDS011;10787;53.364;-1.480;2023-02-28T04:29:29;20.47;;;12.03;;
21258;SDS011;10787;53.364;-1.480;2023-02-28T04:31:56;20.43;;;12.57;;
21258;SDS011;10787;53.364;-1.480;2023-02-28T04:34:24;21.77;;;12.83;;
21258;SDS011;10787;53.364;-1.480;2023-02-28T04:36:51;21.10;;;12.87;;
21258;SDS011;10787;53.364;-1.480;2023-02-28T04:39:20;20.73;;;12.57;;
21258;SDS011;10787;53.364;-1.480;2023-02-28T04:41:46;22.27;;;12.40;;
21258;SDS011;10787;53.364;-1.480;2023-02-28T04:44:13;22.00;;;11.90;;
21258;SDS011;10787;53.364;-1.480;2023-02-28T04:46:39;19.70;;;11.13;;
21258;SDS011;10787;53.364;-1.480;2023-02-28T04:49:06;16.70;;;10.10;;
21258;SDS011;10787;53.364;-1.480;2023-02-28T04:51:33;15.33;;;9.10;;
21258;SDS011;10787;53.364;-1.480;2023-02-28T04:53:58;14.87;;;8.90;;
21258;SDS011;10787;53.364;-1.480;2023-02-28T04:56:24;14.30;;;8.10;;
21258;SDS011;10787;53.364;-1.480;2023-02-28T04:58:50;14.10;;;8.97;;
21258;SDS011;10787;53.364;-1.480;2023-02-28T05:01:22;13.93;;;7.90;;
21258;SDS011;10787;53.364;-1.480;2023-02-28T05:03:53;13.67;;;7.63;;
21258;SDS011;10787;53.364;-1.480;2023-02-28T05:06:21;11.50;;;7.27;;
21258;SDS011;10787;53.364;-1.480;2023-02-28T05:08:49;13.07;;;7.87;;
21258;SDS011;10787;53.364;-1.480;2023-02-28T05:11:22;12.70;;;8.27;;
21258;SDS011;10787;53.364;-1.480;2023-02-28T05:13:50;14.13;;;8.53;;
21258;SDS011;10787;53.364;-1.480;2023-02-28T05:16:17;14.63;;;9.00;;
21258;SDS011;10787;53.364;-1.480;2023-02-28T05:18:44;14.77;;;9.37;;
21258;SDS011;10787;53.364;-1.480;2023-02-28T05:23:56;16.93;;;8.97;;
21258;SDS011;10787;53.364;-1.480;2023-02-28T05:26:24;15.67;;;8.97;;
21258;SDS011;10787;53.364;-1.480;2023-02-28T05:28:50;17.97;;;8.90;;
21258;SDS011;10787;53.364;-1.480;2023-02-28T05:31:16;14.40;;;8.70;;
21258;SDS011;10787;53.364;-1.480;2023-02-28T05:33:42;16.10;;;8.90;;
21258;SDS011;10787;53.364;-1.480;2023-02-28T05:36:08;15.70;;;8.80;;
21258;SDS011;10787;53.364;-1.480;2023-02-28T05:38:34;15.30;;;8.27;;
21258;SDS011;10787;53.364;-1.480;2023-02-28T05:40:59;16.73;;;8.07;;
21258;SDS011;10787;53.364;-1.480;2023-02-28T05:43:25;14.53;;;8.33;;
21258;SDS011;10787;53.364;-1.480;2023-02-28T05:45:51;16.30;;;8.67;;
21258;SDS011;10787;53.364;-1.480;2023-02-28T05:48:17;15.97;;;7.63;;
21258;SDS011;10787;53.364;-1.480;2023-02-28T05:50:43;14.00;;;8.10;;
21258;SDS011;10787;53.364;-1.480;2023-02-28T05:53:11;14.13;;;7.77;;
21258;SDS011;10787;53.364;-1.480;2023-02-28T05:55:36;13.40;;;7.73;;
21258;SDS011;10787;53.364;-1.480;2023-02-28T05:58:03;15.67;;;7.87;;
21258;SDS011;10787;53.364;-1.480;2023-02-28T06:00:28;15.60;;;8.67;;
21258;SDS011;10787;53.364;-1.480;2023-02-28T06:02:54;17.07;;;8.50;;
21258;SDS011;10787;53.364;-1.480;2023-02-28T06:05:23;15.30;;;8.27;;
21258;SDS011;10787;53.364;-1.480;2023-02-28T06:07:49;15.80;;;8.40;;
21258;SDS011;10787;53.364;-1.480;2023-02-28T06:10:15;15.77;;;8.87;;
21258;SDS011;10787;53.364;-1.480;2023-02-28T06:12:41;16.57;;;9.07;;
21258;SDS011;10787;53.364;-1.480;2023-02-28T06:15:07;16.80;;;8.53;;
21258;SDS011;10787;53.364;-1.480;2023-02-28T06:17:39;16.00;;;8.93;;
21258;SDS011;10787;53.364;-1.480;2023-02-28T06:20:06;14.83;;;8.37;;
21258;SDS011;10787;53.364;-1.480;2023-02-28T06:22:34;15.87;;;8.50;;
21258;SDS011;10787;53.364;-1.480;2023-02-28T06:25:00;14.77;;;8.53;;
21258;SDS011;10787;53.364;-1.480;2023-02-28T06:27:26;17.00;;;7.80;;
21258;SDS011;10787;53.364;-1.480;2023-02-28T06:29:55;16.23;;;8.60;;
21258;SDS011;10787;53.364;-1.480;2023-02-28T06:32:21;22.17;;;8.50;;
21258;SDS011;10787;53.364;-1.480;2023-02-28T06:34:47;30.40;;;8.53;;
21258;SDS011;10787;53.364;-1.480;2023-02-28T06:37:14;17.00;;;7.90;;
21258;SDS011;10787;53.364;-1.480;2023-02-28T06:39:40;23.27;;;8.63;;
21258;SDS011;10787;53.364;-1.480;2023-02-28T06:42:05;33.37;;;9.27;;
21258;SDS011;10787;53.364;-1.480;2023-02-28T06:44:31;13.73;;;8.30;;
21258;SDS011;10787;53.364;-1.480;2023-02-28T06:47:03;17.83;;;8.20;;
21258;SDS011;10787;53.364;-1.480;2023-02-28T06:49:30;15.10;;;7.77;;
21258;SDS011;10787;53.364;-1.480;2023-02-28T06:51:57;15.10;;;7.40;;
21258;SDS011;10787;53.364;-1.480;2023-02-28T06:54:23;17.00;;;7.40;;
21258;SDS011;10787;53.364;-1.480;2023-02-28T06:56:49;14.07;;;7.57;;
21258;SDS011;10787;53.364;-1.480;2023-02-28T06:59:15;13.97;;;8.13;;
21258;SDS011;10787;53.364;-1.480;2023-02-28T07:01:41;13.57;;;7.73;;
21258;SDS011;10787;53.364;-1.480;2023-02-28T07:04:07;14.33;;;7.37;;
21258;SDS011;10787;53.364;-1.480;2023-02-28T07:06:33;14.43;;;7.60;;
21258;SDS011;10787;53.364;-1.480;2023-02-28T07:08:59;14.50;;;7.53;;
21258;SDS011;10787;53.364;-1.480;2023-02-28T07:11:26;14.70;;;7.90;;
21258;SDS011;10787;53.364;-1.480;2023-02-28T07:13:53;12.60;;;7.37;;
21258;SDS011;10787;53.364;-1.480;2023-02-28T07:16:20;13.40;;;7.23;;
21258;SDS011;10787;53.364;-1.480;2023-02-28T07:18:46;12.70;;;7.10;;
21258;SDS011;10787;53.364;-1.480;2023-02-28T07:21:13;15.00;;;7.97;;
21258;SDS011;10787;53.364;-1.480;2023-02-28T07:23:39;13.13;;;6.80;;
21258;SDS011;10787;53.364;-1.480;2023-02-28T07:26:07;14.73;;;7.00;;
21258;SDS011;10787;53.364;-1.480;2023-02-28T07:28:39;15.13;;;7.03;;
21258;SDS011;10787;53.364;-1.480;2023-02-28T07:31:07;13.73;;;6.70;;
21258;SDS011;10787;53.364;-1.480;2023-02-28T07:33:34;15.63;;;7.30;;
21258;SDS011;10787;53.364;-1.480;2023-02-28T07:36:01;14.10;;;7.20;;
21258;SDS011;10787;53.364;-1.480;2023-02-28T07:38:29;13.20;;;6.30;;
21258;SDS011;10787;53.364;-1.480;2023-02-28T07:40:55;10.50;;;6.00;;
21258;SDS011;10787;53.364;-1.480;2023-02-28T07:43:21;9.77;;;5.60;;
21258;SDS011;10787;53.364;-1.480;2023-02-28T07:45:46;10.37;;;5.47;;
21258;SDS011;10787;53.364;-1.480;2023-02-28T07:48:12;9.90;;;5.63;;
21258;SDS011;10787;53.364;-1.480;2023-02-28T07:50:38;11.63;;;5.83;;
21258;SDS011;10787;53.364;-1.480;2023-02-28T07:53:04;8.73;;;5.63;;
21258;SDS011;10787;53.364;-1.480;2023-02-28T07:55:29;11.70;;;5.90;;
21258;SDS011;10787;53.364;-1.480;2023-02-28T07:57:56;8.77;;;5.60;;
21258;SDS011;10787;53.364;-1.480;2023-02-28T08:00:22;11.87;;;5.80;;
21258;SDS011;10787;53.364;-1.480;2023-02-28T08:02:48;12.87;;;5.70;;
21258;SDS011;10787;53.364;-1.480;2023-02-28T08:05:14;9.80;;;5.67;;
21258;SDS011;10787;53.364;-1.480;2023-02-28T08:07:40;8.73;;;5.37;;
21258;SDS011;10787;53.364;-1.480;2023-02-28T08:10:06;9.57;;;4.67;;
21258;SDS011;10787;53.364;-1.480;2023-02-28T08:12:33;10.33;;;5.50;;
21258;SDS011;10787;53.364;-1.480;2023-02-28T08:14:59;9.87;;;4.90;;
21258;SDS011;10787;53.364;-1.480;2023-02-28T08:17:25;8.90;;;5.33;;
21258;SDS011;10787;53.364;-1.480;2023-02-28T08:19:51;9.47;;;5.27;;
21258;SDS011;10787;53.364;-1.480;2023-02-28T08:22:16;13.43;;;5.50;;
21258;SDS011;10787;53.364;-1.480;2023-02-28T08:24:42;10.17;;;5.93;;
21258;SDS011;10787;53.364;-1.480;2023-02-28T08:27:08;10.60;;;5.23;;
21258;SDS011;10787;53.364;-1.480;2023-02-28T08:29:36;8.83;;;5.13;;
21258;SDS011;10787;53.364;-1.480;2023-02-28T08:32:03;8.83;;;5.53;;
21258;SDS011;10787;53.364;-1.480;2023-02-28T08:34:30;15.07;;;8.83;;
21258;SDS011;10787;53.364;-1.480;2023-02-28T08:36:55;12.63;;;6.10;;
21258;SDS011;10787;53.364;-1.480;2023-02-28T08:39:21;11.27;;;5.83;;
21258;SDS011;10787;53.364;-1.480;2023-02-28T08:41:47;10.60;;;6.50;;
21258;SDS011;10787;53.364;-1.480;2023-02-28T08:44:12;11.47;;;6.93;;
21258;SDS011;10787;53.364;-1.480;2023-02-28T08:46:38;129.70;;;11.70;;
21258;SDS011;10787;53.364;-1.480;2023-02-28T08:49:04;11.53;;;6.40;;
21258;SDS011;10787;53.364;-1.480;2023-02-28T08:51:30;14.20;;;6.67;;
21258;SDS011;10787;53.364;-1.480;2023-02-28T08:53:58;11.03;;;6.00;;
21258;SDS011;10787;53.364;-1.480;2023-02-28T08:56:25;14.10;;;6.80;;
21258;SDS011;10787;53.364;-1.480;2023-02-28T08:58:51;10.60;;;6.67;;
21258;SDS011;10787;53.364;-1.480;2023-02-28T09:01:27;9.93;;;6.03;;
21258;SDS011;10787;53.364;-1.480;2023-02-28T09:03:53;11.83;;;7.13;;
21258;SDS011;10787;53.364;-1.480;2023-02-28T09:06:21;9.97;;;5.77;;
21258;SDS011;10787;53.364;-1.480;2023-02-28T09:08:49;8.70;;;5.37;;
21258;SDS011;10787;53.364;-1.480;2023-02-28T09:11:15;9.70;;;5.20;;
21258;SDS011;10787;53.364;-1.480;2023-02-28T09:13:43;8.33;;;4.90;;
21258;SDS011;10787;53.364;-1.480;2023-02-28T09:16:11;9.30;;;4.80;;
21258;SDS011;10787;53.364;-1.480;2023-02-28T09:18:39;8.47;;;4.80;;
21258;SDS011;10787;53.364;-1.480;2023-02-28T09:21:09;9.57;;;4.80;;
21258;SDS011;10787;53.364;-1.480;2023-02-28T09:23:40;8.77;;;5.13;;
21258;SDS011;10787;53.364;-1.480;2023-02-28T09:26:07;7.47;;;5.07;;
21258;SDS011;10787;53.364;-1.480;2023-02-28T09:28:38;7.97;;;4.83;;
21258;SDS011;10787;53.364;-1.480;2023-02-28T09:31:03;6.17;;;4.37;;
21258;SDS011;10787;53.364;-1.480;2023-02-28T09:33:29;7.37;;;4.60;;
21258;SDS011;10787;53.364;-1.480;2023-02-28T09:35:59;6.53;;;4.47;;
21258;SDS011;10787;53.364;-1.480;2023-02-28T09:38:26;10.13;;;4.50;;
21258;SDS011;10787;53.364;-1.480;2023-02-28T09:40:54;11.33;;;4.40;;
21258;SDS011;10787;53.364;-1.480;2023-02-28T09:43:23;6.93;;;4.30;;
21258;SDS011;10787;53.364;-1.480;2023-02-28T09:45:59;10.73;;;4.43;;
21258;SDS011;10787;53.364;-1.480;2023-02-28T09:48:35;7.80;;;4.30;;
21258;SDS011;10787;53.364;-1.480;2023-02-28T09:53:48;8.10;;;4.40;;
21258;SDS011;10787;53.364;-1.480;2023-02-28T09:57:01;8.67;;;4.90;;
21258;SDS011;10787;53.364;-1.480;2023-02-28T09:59:17;10.03;;;5.30;;
21258;SDS011;10787;53.364;-1.480;2023-02-28T10:04:50;7.50;;;4.53;;
21258;SDS011;10787;53.364;-1.480;2023-02-28T10:07:36;8.13;;;4.57;;
21258;SDS011;10787;53.364;-1.480;2023-02-28T10:10:30;6.83;;;4.27;;
21258;SDS011;10787;53.364;-1.480;2023-02-28T10:13:06;5.90;;;4.00;;
21258;SDS011;10787;53.364;-1.480;2023-02-28T10:15:47;6.97;;;4.07;;
21258;SDS011;10787;53.364;-1.480;2023-02-28T10:18:20;6.80;;;4.10;;
21258;SDS011;10787;53.364;-1.480;2023-02-28T10:20:49;7.33;;;4.03;;
21258;SDS011;10787;53.364;-1.480;2023-02-28T10:23:34;7.17;;;4.30;;
21258;SDS011;10787;53.364;-1.480;2023-02-28T10:26:09;11.63;;;4.43;;
21258;SDS011;10787;53.364;-1.480;2023-02-28T10:28:37;7.20;;;4.20;;
21258;SDS011;10787;53.364;-1.480;2023-02-28T10:31:04;7.40;;;4.63;;
21258;SDS011;10787;53.364;-1.480;2023-02-28T10:33:33;8.73;;;4.73;;
21258;SDS011;10787;53.364;-1.480;2023-02-28T10:36:00;5.87;;;4.27;;
21258;SDS011;10787;53.364;-1.480;2023-02-28T10:38:35;7.90;;;4.23;;
21258;SDS011;10787;53.364;-1.480;2023-02-28T10:41:03;6.07;;;3.57;;
21258;SDS011;10787;53.364;-1.480;2023-02-28T10:43:41;4.27;;;3.10;;
21258;SDS011;10787;53.364;-1.480;2023-02-28T10:48:37;6.47;;;4.20;;
21258;SDS011;10787;53.364;-1.480;2023-02-28T10:51:08;7.77;;;3.80;;
21258;SDS011;10787;53.364;-1.480;2023-02-28T10:53:37;6.47;;;3.97;;
21258;SDS011;10787;53.364;-1.480;2023-02-28T11:03:47;6.03;;;4.87;;
21258;SDS011;10787;53.364;-1.480;2023-02-28T11:06:17;8.03;;;5.13;;
21258;SDS011;10787;53.364;-1.480;2023-02-28T11:08:53;8.13;;;4.83;;
21258;SDS011;10787;53.364;-1.480;2023-02-28T11:11:29;6.80;;;4.83;;
21258;SDS011;10787;53.364;-1.480;2023-02-28T11:14:06;8.07;;;5.10;;
21258;SDS011;10787;53.364;-1.480;2023-02-28T11:19:49;5.60;;;3.23;;
21258;SDS011;10787;53.364;-1.480;2023-02-28T11:22:18;5.93;;;3.47;;
21258;SDS011;10787;53.364;-1.480;2023-02-28T11:24:47;4.77;;;3.50;;
21258;SDS011;10787;53.364;-1.480;2023-02-28T11:29:55;5.23;;;3.07;;
21258;SDS011;10787;53.364;-1.480;2023-02-28T11:32:23;4.80;;;3.10;;
21258;SDS011;10787;53.364;-1.480;2023-02-28T11:37:34;7.07;;;3.37;;
21258;SDS011;10787;53.364;-1.480;2023-02-28T11:40:01;4.23;;;3.00;;
21258;SDS011;10787;53.364;-1.480;2023-02-28T11:53:22;7.13;;;3.00;;
21258;SDS011;10787;53.364;-1.480;2023-02-28T11:55:50;6.03;;;2.60;;
21258;SDS011;10787;53.364;-1.480;2023-02-28T12:01:28;5.47;;;2.43;;
21258;SDS011;10787;53.364;-1.480;2023-02-28T12:12:06;2.90;;;2.30;;
21258;SDS011;10787;53.364;-1.480;2023-02-28T12:22:49;4.20;;;2.67;;
21258;SDS011;10787;53.364;-1.480;2023-02-28T12:27:57;3.90;;;2.20;;
21258;SDS011;10787;53.364;-1.480;2023-02-28T12:30:24;5.73;;;2.17;;
21258;SDS011;10787;53.364;-1.480;2023-02-28T12:35:49;4.03;;;2.73;;
21258;SDS011;10787;53.364;-1.480;2023-02-28T12:41:22;4.50;;;2.70;;
21258;SDS011;10787;53.364;-1.480;2023-02-28T12:43:52;5.17;;;2.30;;
21258;SDS011;10787;53.364;-1.480;2023-02-28T12:46:27;4.83;;;2.80;;
21258;SDS011;10787;53.364;-1.480;2023-02-28T12:48:59;2.80;;;2.30;;
21258;SDS011;10787;53.364;-1.480;2023-02-28T12:51:30;3.47;;;2.37;;
21258;SDS011;10787;53.364;-1.480;2023-02-28T12:59:19;3.13;;;2.10;;
21258;SDS011;10787;53.364;-1.480;2023-02-28T13:02:08;4.87;;;2.30;;
21258;SDS011;10787;53.364;-1.480;2023-02-28T13:04:48;3.33;;;2.50;;
21258;SDS011;10787;53.364;-1.480;2023-02-28T13:10:12;3.43;;;2.30;;
21258;SDS011;10787;53.364;-1.480;2023-02-28T13:12:51;3.53;;;2.50;;
21258;SDS011;10787;53.364;-1.480;2023-02-28T13:15:23;4.10;;;2.47;;
21258;SDS011;10787;53.364;-1.480;2023-02-28T13:17:56;3.40;;;2.20;;
21258;SDS011;10787;53.364;-1.480;2023-02-28T13:20:37;4.23;;;2.30;;
21258;SDS011;10787;53.364;-1.480;2023-02-28T13:23:36;6.10;;;3.40;;
21258;SDS011;10787;53.364;-1.480;2023-02-28T13:29:21;3.80;;;2.57;;
21258;SDS011;10787;53.364;-1.480;2023-02-28T13:34:31;5.53;;;2.90;;
21258;SDS011;10787;53.364;-1.480;2023-02-28T13:40:06;3.20;;;2.90;;
21258;SDS011;10787;53.364;-1.480;2023-02-28T13:52:44;6.00;;;4.20;;
21258;SDS011;10787;53.364;-1.480;2023-02-28T13:58:32;2.87;;;2.40;;
21258;SDS011;10787;53.364;-1.480;2023-02-28T14:06:39;4.03;;;2.60;;
21258;SDS011;10787;53.364;-1.480;2023-02-28T14:11:48;4.57;;;3.20;;
21258;SDS011;10787;53.364;-1.480;2023-02-28T14:17:02;5.40;;;3.63;;
21258;SDS011;10787;53.364;-1.480;2023-02-28T14:19:31;5.60;;;3.43;;
21258;SDS011;10787;53.364;-1.480;2023-02-28T14:22:09;4.50;;;3.60;;
21258;SDS011;10787;53.364;-1.480;2023-02-28T14:41:32;5.23;;;2.90;;
21258;SDS011;10787;53.364;-1.480;2023-02-28T14:44:14;4.70;;;3.00;;
21258;SDS011;10787;53.364;-1.480;2023-02-28T14:46:49;4.60;;;3.30;;
21258;SDS011;10787;53.364;-1.480;2023-02-28T14:55:24;5.03;;;3.90;;
21258;SDS011;10787;53.364;-1.480;2023-02-28T14:57:53;5.43;;;3.90;;
21258;SDS011;10787;53.364;-1.480;2023-02-28T15:00:30;7.40;;;3.93;;
21258;SDS011;10787;53.364;-1.480;2023-02-28T15:03:17;4.93;;;3.63;;
21258;SDS011;10787;53.364;-1.480;2023-02-28T15:05:52;8.90;;;3.90;;
21258;SDS011;10787;53.364;-1.480;2023-02-28T15:08:25;6.23;;;3.17;;
21258;SDS011;10787;53.364;-1.480;2023-02-28T15:11:01;5.30;;;2.87;;
21258;SDS011;10787;53.364;-1.480;2023-02-28T15:13:40;4.27;;;2.40;;
21258;SDS011;10787;53.364;-1.480;2023-02-28T15:16:13;5.57;;;2.40;;
21258;SDS011;10787;53.364;-1.480;2023-02-28T15:18:46;4.57;;;2.30;;
21258;SDS011;10787;53.364;-1.480;2023-02-28T15:21:21;4.03;;;2.20;;
21258;SDS011;10787;53.364;-1.480;2023-02-28T15:23:54;4.33;;;2.00;;
21258;SDS011;10787;53.364;-1.480;2023-02-28T15:26:25;6.97;;;3.23;;
21258;SDS011;10787;53.364;-1.480;2023-02-28T15:29:05;4.00;;;2.57;;
21258;SDS011;10787;53.364;-1.480;2023-02-28T15:31:40;6.17;;;2.40;;
21258;SDS011;10787;53.364;-1.480;2023-02-28T15:34:18;4.13;;;2.50;;
21258;SDS011;10787;53.364;-1.480;2023-02-28T15:36:46;3.47;;;1.97;;
21258;SDS011;10787;53.364;-1.480;2023-02-28T15:39:20;4.70;;;2.17;;
21258;SDS011;10787;53.364;-1.480;2023-02-28T15:41:48;5.93;;;2.40;;
21258;SDS011;10787;53.364;-1.480;2023-02-28T15:44:25;4.17;;;2.40;;
21258;SDS011;10787;53.364;-1.480;2023-02-28T15:47:01;4.77;;;2.40;;
21258;SDS011;10787;53.364;-1.480;2023-02-28T15:49:34;3.93;;;2.27;;
21258;SDS011;10787;53.364;-1.480;2023-02-28T15:52:18;3.73;;;2.23;;
21258;SDS011;10787;53.364;-1.480;2023-02-28T15:54:46;6.27;;;2.80;;
21258;SDS011;10787;53.364;-1.480;2023-02-28T15:57:14;6.03;;;2.90;;
21258;SDS011;10787;53.364;-1.480;2023-02-28T15:59:49;4.77;;;2.40;;
21258;SDS011;10787;53.364;-1.480;2023-02-28T16:02:30;5.97;;;2.80;;
21258;SDS011;10787;53.364;-1.480;2023-02-28T16:07:36;5.47;;;2.47;;
21258;SDS011;10787;53.364;-1.480;2023-02-28T16:10:03;3.63;;;2.00;;
21258;SDS011;10787;53.364;-1.480;2023-02-28T16:12:31;3.10;;;1.70;;
21258;SDS011;10787;53.364;-1.480;2023-02-28T16:14:59;3.77;;;1.53;;
21258;SDS011;10787;53.364;-1.480;2023-02-28T16:17:29;3.83;;;1.50;;
21258;SDS011;10787;53.364;-1.480;2023-02-28T16:19:57;4.80;;;1.80;;
21258;SDS011;10787;53.364;-1.480;2023-02-28T16:22:23;7.43;;;2.57;;
21258;SDS011;10787;53.364;-1.480;2023-02-28T16:24:49;3.60;;;2.00;;
21258;SDS011;10787;53.364;-1.480;2023-02-28T16:27:21;5.53;;;3.17;;
21258;SDS011;10787;53.364;-1.480;2023-02-28T16:29:56;6.23;;;2.70;;
21258;SDS011;10787;53.364;-1.480;2023-02-28T16:32:22;4.50;;;2.50;;
21258;SDS011;10787;53.364;-1.480;2023-02-28T16:34:47;5.30;;;3.30;;
21258;SDS011;10787;53.364;-1.480;2023-02-28T16:37:15;4.90;;;3.10;;
21258;SDS011;10787;53.364;-1.480;2023-02-28T16:39:42;5.23;;;2.77;;
21258;SDS011;10787;53.364;-1.480;2023-02-28T16:42:21;5.90;;;3.10;;
21258;SDS011;10787;53.364;-1.480;2023-02-28T16:44:49;3.87;;;2.47;;
21258;SDS011;10787;53.364;-1.480;2023-02-28T16:47:17;4.23;;;2.13;;
21258;SDS011;10787;53.364;-1.480;2023-02-28T16:49:42;3.27;;;2.10;;
21258;SDS011;10787;53.364;-1.480;2023-02-28T16:52:09;4.50;;;2.30;;
21258;SDS011;10787;53.364;-1.480;2023-02-28T16:54:35;3.47;;;2.00;;
21258;SDS011;10787;53.364;-1.480;2023-02-28T16:57:01;3.30;;;1.73;;
21258;SDS011;10787;53.364;-1.480;2023-02-28T16:59:27;3.00;;;1.93;;
21258;SDS011;10787;53.364;-1.480;2023-02-28T17:01:54;4.10;;;2.10;;
21258;SDS011;10787;53.364;-1.480;2023-02-28T17:04:23;4.23;;;2.40;;
21258;SDS011;10787;53.364;-1.480;2023-02-28T17:06:51;4.60;;;2.80;;
21258;SDS011;10787;53.364;-1.480;2023-02-28T17:09:19;6.00;;;3.30;;
21258;SDS011;10787;53.364;-1.480;2023-02-28T17:11:46;8.23;;;5.43;;
21258;SDS011;10787;53.364;-1.480;2023-02-28T17:14:13;5.63;;;3.50;;
21258;SDS011;10787;53.364;-1.480;2023-02-28T17:16:39;6.43;;;3.77;;
21258;SDS011;10787;53.364;-1.480;2023-02-28T17:19:09;11.57;;;5.20;;
21258;SDS011;10787;53.364;-1.480;2023-02-28T17:21:37;4.80;;;3.07;;
21258;SDS011;10787;53.364;-1.480;2023-02-28T17:24:03;5.80;;;3.10;;